Maggard, Kentucky
Current Conditions -  °F | °C
As of 8:53 AM on Friday 31 Oct 2014 (Local Time) from KJKL Reporting Station
Light Rain Light Rain  
Wind Chill: 39°   Ceiling: 4100
Heat Index: 39°   Visibility: 5mi
Dew Point: 36°   Wind: 0mph
Humidity: 89%   Direction: NA
Pressure: 29.98"   Gusts: NA
Location:  37.7261°N, 83.0786°W
Report Text: KJKL 311253Z AUTO 00000KT 5SM -RA BR OVC041 04/02 A2998 RMK AO2 RAB1158 SLP155 P0000 T00390022
Loading
Personal Weather Stations






























Interactive Weather Map
Tropical Storm Tracking
New forecast layout! Learn more

10-Day Weather Forecast

Advertisements
Track Severe Weather on mobile